Time;durP1;ratioP1;P1;durP2;ratioP2;P2;SDS_P1;SDS_P2;PMS_P1;PMS_P2;Temp;Humidity;BMP_temperature;BMP_pressure;BME280_temperature;BME280_humidity;BME280_pressure;Samples;Min_cycle;Max_cycle;Signal;HPM_P1;HPM_P2
2021/05/30 00:01:26;;;;;;;2.53;2.33;;;11.20;62.80;;;;;;5084134;28;20660;-81
2021/05/30 00:03:53;;;;;;;3.63;3.03;;;11.20;64.00;;;;;;5075616;28;20630;-81
2021/05/30 00:06:19;;;;;;;3.75;3.45;;;11.20;64.00;;;;;;5074187;28;20194;-81
2021/05/30 00:08:46;;;;;;;3.40;3.00;;;11.20;64.00;;;;;;5085196;28;20245;-81
2021/05/30 00:11:13;;;;;;;3.30;3.00;;;11.00;63.10;;;;;;5071011;28;21191;-81
2021/05/30 00:13:40;;;;;;;2.83;2.63;;;11.00;64.60;;;;;;5070018;28;20217;-81
2021/05/30 00:16:06;;;;;;;4.18;3.78;;;10.90;63.60;;;;;;5087765;28;20952;-81
2021/05/30 00:18:33;;;;;;;3.28;2.95;;;10.70;64.30;;;;;;5076531;28;20231;-81
2021/05/30 00:20:59;;;;;;;2.23;2.13;;;10.70;64.50;;;;;;5079466;28;20203;-81
2021/05/30 00:23:25;;;;;;;4.30;3.90;;;10.60;64.90;;;;;;5079983;28;20617;-81
2021/05/30 00:25:53;;;;;;;3.03;2.73;;;10.50;65.70;;;;;;5089846;28;20199;-82
2021/05/30 00:28:19;;;;;;;3.03;2.63;;;10.50;65.70;;;;;;5072260;28;20668;-82
2021/05/30 00:30:45;;;;;;;2.78;2.50;;;10.50;66.50;;;;;;5089739;28;20289;-82
2021/05/30 00:33:13;;;;;;;3.10;2.80;;;10.50;66.10;;;;;;5074072;28;20661;-82
2021/05/30 00:35:40;;;;;;;2.85;2.65;;;10.50;66.30;;;;;;5083155;28;20242;-81
2021/05/30 00:38:06;;;;;;;3.70;3.30;;;10.50;66.30;;;;;;5071421;28;20191;-81
2021/05/30 00:40:32;;;;;;;3.00;2.70;;;10.50;65.50;;;;;;5090268;28;20574;-82
2021/05/30 00:43:00;;;;;;;3.17;2.70;;;10.40;66.70;;;;;;5073692;28;20199;-81
2021/05/30 00:45:27;;;;;;;2.80;2.60;;;10.40;67.40;;;;;;5084187;28;20660;-81
2021/05/30 00:47:53;;;;;;;3.13;2.92;;;10.40;68.40;;;;;;5081694;28;20248;-82
2021/05/30 00:50:20;;;;;;;4.53;3.40;;;10.50;67.70;;;;;;5083092;28;20195;-82
2021/05/30 00:52:46;;;;;;;3.50;3.20;;;10.40;66.70;;;;;;5069927;28;20249;-82
2021/05/30 00:55:13;;;;;;;3.80;3.15;;;10.50;66.70;;;;;;5083953;28;20273;-81
2021/05/30 00:57:41;;;;;;;7.13;3.88;;;10.50;67.70;;;;;;5086358;28;20553;-81
2021/05/30 01:00:10;;;;;;;3.08;2.78;;;10.50;68.70;;;;;;5092774;28;20222;-81
2021/05/30 01:02:37;;;;;;;3.53;3.22;;;10.40;69.50;;;;;;5085053;28;20241;-81
2021/05/30 01:05:07;;;;;;;4.25;3.95;;;10.40;69.90;;;;;;5070357;28;20602;-81
2021/05/30 01:07:41;;;;;;;4.03;3.45;;;10.20;70.80;;;;;;5084360;28;20194;-81
2021/05/30 01:10:20;;;;;;;3.22;2.92;;;10.20;70.80;;;;;;5072215;28;20207;-81
2021/05/30 01:12:50;;;;;;;5.68;4.05;;;10.10;70.60;;;;;;5087932;28;20209;-81
2021/05/30 01:15:19;;;;;;;3.25;2.95;;;10.10;71.60;;;;;;5074911;28;20209;-81
2021/05/30 01:17:48;;;;;;;4.45;3.70;;;10.00;72.00;;;;;;5084789;28;20194;-81
2021/05/30 01:20:17;;;;;;;4.78;3.90;;;10.00;72.40;;;;;;5082883;28;20256;-81
2021/05/30 01:22:46;;;;;;;5.22;4.00;;;10.10;72.60;;;;;;5092165;28;20213;-81
2021/05/30 01:25:17;;;;;;;4.50;3.83;;;10.00;72.10;;;;;;5077104;28;20192;-81
2021/05/30 01:27:44;;;;;;;5.10;3.65;;;10.10;72.10;;;;;;5077480;28;20183;-81
2021/05/30 01:30:15;;;;;;;5.25;3.75;;;10.10;72.90;;;;;;5091956;28;20206;-81
2021/05/30 01:32:44;;;;;;;4.22;3.92;;;10.10;71.80;;;;;;5090773;28;20195;-81
2021/05/30 01:35:12;;;;;;;5.43;3.75;;;10.20;71.60;;;;;;5088630;28;20203;-81
2021/05/30 01:37:39;;;;;;;5.30;4.20;;;10.20;70.40;;;;;;5093402;28;20660;-81
2021/05/30 01:40:11;;;;;;;5.43;4.07;;;10.20;71.10;;;;;;5073264;28;20227;-81
2021/05/30 01:42:39;;;;;;;3.75;3.45;;;10.10;70.60;;;;;;5084576;28;20206;-82
2021/05/30 01:45:10;;;;;;;4.65;3.78;;;10.00;70.60;;;;;;5091585;28;20682;-81
2021/05/30 01:47:42;;;;;;;4.65;4.25;;;10.10;70.80;;;;;;5081247;28;20294;-82
2021/05/30 01:50:13;;;;;;;4.20;3.80;;;10.10;72.40;;;;;;5080621;28;20198;-81
2021/05/30 01:52:53;;;;;;;4.70;4.35;;;9.80;74.90;;;;;;5083576;28;20220;-81
2021/05/30 01:55:24;;;;;;;4.50;4.10;;;9.90;76.00;;;;;;5091253;28;20198;-81
2021/05/30 01:57:54;;;;;;;6.20;4.85;;;9.80;76.00;;;;;;5074169;28;20632;-81
2021/05/30 02:00:22;;;;;;;4.82;4.43;;;9.90;75.10;;;;;;5072109;28;20258;-81
2021/05/30 02:02:53;;;;;;;4.68;4.25;;;10.00;73.80;;;;;;5082964;28;20588;-81
2021/05/30 02:05:24;;;;;;;7.45;3.85;;;9.90;76.40;;;;;;5083237;28;20255;-82
2021/05/30 02:07:55;;;;;;;4.43;4.05;;;9.90;77.50;;;;;;5082786;28;20244;-80
2021/05/30 02:10:24;;;;;;;4.63;4.22;;;9.90;75.90;;;;;;5076516;28;20207;-80
2021/05/30 02:12:56;;;;;;;4.65;4.25;;;9.80;76.10;;;;;;5077643;28;20230;-81
2021/05/30 02:15:25;;;;;;;5.90;4.43;;;9.90;76.90;;;;;;5079840;28;20194;-81
2021/05/30 02:17:54;;;;;;;5.03;4.50;;;9.80;77.30;;;;;;5084583;28;20203;-81
2021/05/30 02:20:33;;;;;;;5.40;4.90;;;9.70;78.00;;;;;;5090818;28;20329;-81
2021/05/30 02:23:04;;;;;;;5.95;4.38;;;9.60;78.80;;;;;;5084953;28;20190;-81
2021/05/30 02:25:33;;;;;;;8.35;4.88;;;9.60;78.70;;;;;;5072289;28;21059;-81
2021/05/30 02:28:05;;;;;;;5.55;5.05;;;9.50;79.00;;;;;;5089765;28;20241;-81
2021/05/30 02:30:34;;;;;;;5.35;4.45;;;9.50;79.60;;;;;;5076917;28;20810;-80
2021/05/30 02:33:03;;;;;;;4.93;4.53;;;9.40;79.40;;;;;;5087484;28;20286;-81
2021/05/30 02:35:32;;;;;;;4.68;4.18;;;9.50;79.80;;;;;;5078559;28;20307;-81
2021/05/30 02:38:01;;;;;;;5.30;4.25;;;9.50;79.80;;;;;;5092069;28;20289;-81
2021/05/30 02:40:31;;;;;;;6.55;4.95;;;9.30;80.30;;;;;;5092090;28;20209;-82
2021/05/30 02:43:02;;;;;;;5.45;4.95;;;9.30;80.80;;;;;;5081757;28;20249;-82
2021/05/30 02:45:38;;;;;;;4.60;4.20;;;9.30;80.20;;;;;;5086851;28;20309;-81
2021/05/30 02:48:17;;;;;;;5.40;4.75;;;9.30;80.30;;;;;;5087361;28;20675;-81
2021/05/30 02:50:58;;;;;;;5.90;5.30;;;9.30;80.80;;;;;;5088768;28;20741;-81
2021/05/30 02:53:34;;;;;;;5.63;5.13;;;9.20;81.90;;;;;;5090413;28;20203;-81
2021/05/30 02:56:08;;;;;;;4.75;4.35;;;9.20;81.70;;;;;;5091838;28;20202;-81
2021/05/30 02:58:38;;;;;;;4.55;4.15;;;9.20;81.80;;;;;;5082338;28;20211;-81
2021/05/30 03:01:06;;;;;;;5.00;4.15;;;9.20;82.30;;;;;;5076308;28;20596;-81
2021/05/30 03:03:35;;;;;;;5.30;4.80;;;9.30;82.30;;;;;;5075190;28;20195;-81
2021/05/30 03:06:04;;;;;;;5.13;4.63;;;9.30;81.60;;;;;;5071180;28;20203;-81
2021/05/30 03:08:33;;;;;;;5.10;4.60;;;9.50;81.10;;;;;;5078887;28;20245;-81
2021/05/30 03:11:02;;;;;;;5.35;4.85;;;9.50;81.00;;;;;;5072995;28;20187;-81
2021/05/30 03:13:30;;;;;;;4.45;4.05;;;9.40;81.80;;;;;;5076478;28;20199;-81
2021/05/30 03:15:57;;;;;;;6.15;4.53;;;9.40;81.80;;;;;;5087677;28;20199;-81
2021/05/30 03:18:27;;;;;;;5.93;5.20;;;9.50;81.60;;;;;;5072347;28;20572;-80
2021/05/30 03:20:55;;;;;;;6.03;4.90;;;9.50;81.50;;;;;;5071181;28;20203;-80
2021/05/30 03:23:22;;;;;;;5.90;5.35;;;9.50;82.00;;;;;;5079151;28;20226;-80
2021/05/30 03:25:49;;;;;;;6.65;4.57;;;9.50;81.10;;;;;;5070158;28;20226;-80
2021/05/30 03:28:17;;;;;;;5.22;4.72;;;9.60;80.70;;;;;;5078624;28;20202;-80
2021/05/30 03:30:45;;;;;;;5.60;4.50;;;9.50;81.60;;;;;;5083046;28;20195;-80
2021/05/30 03:33:12;;;;;;;5.30;4.80;;;9.40;82.60;;;;;;5091286;28;20199;-81
2021/05/30 03:35:41;;;;;;;5.80;5.22;;;9.30;83.00;;;;;;5072412;28;20207;-81
2021/05/30 03:38:12;;;;;;;6.97;5.25;;;9.30;83.10;;;;;;5078619;28;20199;-81
2021/05/30 03:40:46;;;;;;;4.90;4.50;;;9.30;83.30;;;;;;5071084;28;20199;-80
2021/05/30 03:43:15;;;;;;;5.47;5.07;;;9.30;82.90;;;;;;5082979;28;20198;-80
2021/05/30 03:45:43;;;;;;;4.63;4.18;;;9.40;81.70;;;;;;5071349;28;20199;-79
2021/05/30 03:48:11;;;;;;;5.43;4.82;;;9.30;81.30;;;;;;5075720;28;20194;-79
2021/05/30 03:50:43;;;;;;;6.07;4.80;;;9.30;81.00;;;;;;5090317;28;20229;-80
2021/05/30 03:53:12;;;;;;;5.00;4.20;;;9.40;80.80;;;;;;5075065;28;20195;-80
2021/05/30 03:55:44;;;;;;;4.82;4.43;;;9.40;81.20;;;;;;5087176;28;20241;-80
2021/05/30 03:58:21;;;;;;;5.30;4.50;;;9.50;81.60;;;;;;5078657;28;20252;-81
2021/05/30 04:00:51;;;;;;;5.28;4.78;;;9.50;82.40;;;;;;5090983;28;20573;-81
2021/05/30 04:03:19;;;;;;;4.85;4.10;;;9.40;82.30;;;;;;5077538;28;20198;-81
2021/05/30 04:05:49;;;;;;;5.10;4.55;;;9.30;83.30;;;;;;5082365;28;20198;-81
2021/05/30 04:08:18;;;;;;;5.28;4.40;;;9.20;83.50;;;;;;5090052;28;20195;-81
2021/05/30 04:10:53;;;;;;;4.45;4.15;;;9.20;84.60;;;;;;5071448;28;20229;-81
2021/05/30 04:13:22;;;;;;;5.75;5.15;;;9.20;84.90;;;;;;5075764;28;20276;-81
2021/05/30 04:15:54;;;;;;;5.15;4.65;;;9.30;84.90;;;;;;5088202;28;20538;-81
2021/05/30 04:18:24;;;;;;;6.03;5.43;;;9.30;85.20;;;;;;5079488;28;20227;-81
2021/05/30 04:21:05;;;;;;;6.35;5.30;;;9.40;85.20;;;;;;5071503;28;20692;-82
2021/05/30 04:23:45;;;;;;;5.60;5.10;;;9.40;85.30;;;;;;5079730;28;20253;-81
2021/05/30 04:26:21;;;;;;;6.55;5.40;;;9.50;86.00;;;;;;5069798;28;20211;-81
2021/05/30 04:28:54;;;;;;;6.47;5.72;;;9.60;86.30;;;;;;5078283;28;20249;-82
2021/05/30 04:31:22;;;;;;;4.60;4.20;;;9.70;85.80;;;;;;5085355;28;20293;-81
2021/05/30 04:33:52;;;;;;;6.30;5.70;;;9.70;85.30;;;;;;5079970;28;20227;-81
2021/05/30 04:36:23;;;;;;;6.53;5.18;;;9.70;84.80;;;;;;5070350;28;20290;-81
2021/05/30 04:38:52;;;;;;;5.50;5.00;;;9.80;85.50;;;;;;5081341;28;20585;-81
2021/05/30 04:41:26;;;;;;;6.03;5.07;;;9.90;84.80;;;;;;5089151;28;20202;-81
2021/05/30 04:43:55;;;;;;;6.68;5.10;;;9.90;85.10;;;;;;5072295;28;20752;-81
2021/05/30 04:46:26;;;;;;;6.57;5.82;;;10.00;83.80;;;;;;5088942;28;20228;-82
2021/05/30 04:48:55;;;;;;;5.68;5.07;;;9.80;85.20;;;;;;5082967;28;20286;-81
2021/05/30 04:51:28;;;;;;;6.70;5.13;;;9.80;85.60;;;;;;5086533;28;20863;-81
2021/05/30 04:53:55;;;;;;;5.15;4.75;;;10.00;84.70;;;;;;5082608;28;20202;-81
2021/05/30 04:56:27;;;;;;;5.35;4.85;;;10.00;83.70;;;;;;5069375;28;20245;-81
2021/05/30 04:58:55;;;;;;;5.95;5.35;;;10.10;83.50;;;;;;5070857;28;20647;-81
2021/05/30 05:01:24;;;;;;;5.20;4.70;;;10.10;83.50;;;;;;5072138;28;20195;-81
2021/05/30 05:03:55;;;;;;;5.75;4.80;;;10.20;83.20;;;;;;5077120;28;20260;-81
2021/05/30 05:06:29;;;;;;;5.50;4.75;;;10.20;81.90;;;;;;5069644;28;20195;-81
2021/05/30 05:09:01;;;;;;;5.13;4.68;;;9.90;83.50;;;;;;5081230;28;20515;-80
2021/05/30 05:11:30;;;;;;;6.57;5.90;;;9.90;84.90;;;;;;5074058;28;20184;-81
2021/05/30 05:13:58;;;;;;;5.80;5.30;;;10.20;83.80;;;;;;5075633;28;20245;-80
2021/05/30 05:16:25;;;;;;;5.55;5.05;;;10.30;83.20;;;;;;5070710;28;20286;-81
2021/05/30 05:18:53;;;;;;;6.70;4.90;;;10.50;82.50;;;;;;5084356;28;20549;-81
2021/05/30 05:21:20;;;;;;;5.93;4.93;;;10.70;80.60;;;;;;5088992;28;20206;-80
2021/05/30 05:23:48;;;;;;;5.50;3.70;;;10.80;80.50;;;;;;5078004;28;20551;-81
2021/05/30 05:26:15;;;;;;;5.35;4.38;;;11.00;77.50;;;;;;5089276;28;20248;-81
2021/05/30 05:28:42;;;;;;;4.30;3.65;;;11.30;76.90;;;;;;5079087;28;20202;-81
2021/05/30 05:31:09;;;;;;;3.90;3.60;;;11.70;75.40;;;;;;5088069;28;20197;-81
2021/05/30 05:33:38;;;;;;;4.10;3.47;;;11.80;72.80;;;;;;5088045;28;21224;-81
2021/05/30 05:36:06;;;;;;;5.17;3.47;;;12.00;71.70;;;;;;5087973;28;20715;-82
2021/05/30 05:38:34;;;;;;;13.27;3.50;;;12.20;70.10;;;;;;5077809;28;20617;-82
2021/05/30 05:41:02;;;;;;;4.57;4.17;;;12.20;68.10;;;;;;5087289;28;20735;-82
2021/05/30 05:43:29;;;;;;;4.17;3.13;;;12.40;68.40;;;;;;5085692;28;21247;-82
2021/05/30 05:45:56;;;;;;;3.77;3.40;;;12.50;68.50;;;;;;5077302;28;20669;-82
2021/05/30 05:48:23;;;;;;;3.67;3.37;;;12.60;67.20;;;;;;5086843;28;20677;-81
2021/05/30 05:50:51;;;;;;;5.73;3.63;;;12.80;67.00;;;;;;5080460;28;20637;-81
2021/05/30 05:53:18;;;;;;;3.60;3.30;;;12.80;67.40;;;;;;5093562;28;20955;-82
2021/05/30 05:55:46;;;;;;;4.10;3.70;;;13.00;66.90;;;;;;5092473;28;20616;-82
2021/05/30 05:58:14;;;;;;;3.87;3.50;;;13.00;65.70;;;;;;5091784;28;20660;-81
2021/05/30 06:00:42;;;;;;;3.50;3.20;;;13.10;66.90;;;;;;5087864;28;20671;-83
2021/05/30 06:03:09;;;;;;;3.10;2.90;;;13.20;66.20;;;;;;5093449;28;20616;-84
2021/05/30 06:05:36;;;;;;;4.00;3.60;;;13.40;66.30;;;;;;5090082;28;20993;-83
2021/05/30 06:08:04;;;;;;;3.83;3.53;;;13.50;66.80;;;;;;5079873;28;20633;-84
2021/05/30 06:10:31;;;;;;;4.37;3.83;;;13.60;66.30;;;;;;5073751;28;20648;-84
2021/05/30 06:13:02;;;;;;;4.00;3.57;;;13.60;66.10;;;;;;5091553;28;20624;-83
2021/05/30 06:15:30;;;;;;;4.77;3.33;;;13.70;64.20;;;;;;5088075;28;20723;-83
2021/05/30 06:18:02;;;;;;;4.20;3.17;;;13.80;64.40;;;;;;5090394;28;20720;-83
2021/05/30 06:20:31;;;;;;;3.77;3.47;;;13.90;63.90;;;;;;5085665;28;21235;-82
2021/05/30 06:23:01;;;;;;;3.80;3.17;;;14.00;62.20;;;;;;5090797;28;20632;-83
2021/05/30 06:25:29;;;;;;;7.90;3.27;;;14.00;61.00;;;;;;5090812;28;20659;-83
2021/05/30 06:27:56;;;;;;;3.53;3.23;;;14.00;62.40;;;;;;5073427;28;20629;-83
2021/05/30 06:30:24;;;;;;;3.80;3.40;;;14.10;60.20;;;;;;5081083;28;21299;-83
2021/05/30 06:32:52;;;;;;;3.33;2.77;;;14.30;60.00;;;;;;5092711;28;20635;-84
2021/05/30 06:35:19;;;;;;;3.60;3.30;;;14.30;59.60;;;;;;5080619;28;20633;-84
2021/05/30 06:37:47;;;;;;;10.10;3.40;;;14.40;61.10;;;;;;5085296;28;20733;-83
2021/05/30 06:40:15;;;;;;;4.07;3.70;;;14.70;59.00;;;;;;5090928;28;20687;-83
2021/05/30 06:42:42;;;;;;;3.80;3.40;;;14.80;59.60;;;;;;5091930;28;21357;-84
2021/05/30 06:45:10;;;;;;;3.57;3.27;;;14.90;58.40;;;;;;5088255;28;20222;-83
2021/05/30 06:47:37;;;;;;;4.10;3.30;;;14.90;57.80;;;;;;5087066;28;20629;-84
2021/05/30 06:50:07;;;;;;;3.40;3.10;;;14.80;57.00;;;;;;5082243;28;20636;-83
2021/05/30 06:52:34;;;;;;;3.80;3.00;;;14.90;57.90;;;;;;5071590;28;20740;-84
2021/05/30 06:55:01;;;;;;;3.47;3.17;;;15.00;56.10;;;;;;5073950;28;20641;-83
2021/05/30 06:57:28;;;;;;;4.47;4.07;;;15.10;56.40;;;;;;5086298;28;20623;-83
2021/05/30 06:59:55;;;;;;;5.50;3.23;;;15.10;55.30;;;;;;5086038;28;20752;-83
2021/05/30 07:02:22;;;;;;;4.10;3.17;;;15.00;54.80;;;;;;5083705;28;21109;-83
2021/05/30 07:04:48;;;;;;;3.23;2.93;;;15.10;55.50;;;;;;5084439;28;20620;-84
2021/05/30 07:07:16;;;;;;;3.20;3.00;;;15.30;55.90;;;;;;5090990;28;20786;-83
2021/05/30 07:09:43;;;;;;;3.40;2.97;;;15.20;54.30;;;;;;5074002;28;20631;-82
2021/05/30 07:12:10;;;;;;;3.53;3.07;;;15.30;54.20;;;;;;5089843;28;20705;-83
2021/05/30 07:14:36;;;;;;;2.80;2.60;;;15.40;54.30;;;;;;5079895;28;21250;-83
2021/05/30 07:17:03;;;;;;;2.63;2.43;;;15.50;53.90;;;;;;5085503;28;21003;-83
2021/05/30 07:19:30;;;;;;;3.10;2.90;;;15.60;54.40;;;;;;5081381;28;20679;-83
2021/05/30 07:21:56;;;;;;;5.00;3.30;;;15.70;54.90;;;;;;5080037;28;21090;-85
2021/05/30 07:24:25;;;;;;;3.00;2.70;;;15.90;55.20;;;;;;5075907;28;20631;-83
2021/05/30 07:26:52;;;;;;;3.20;3.00;;;16.10;54.30;;;;;;5083019;28;20627;-84
2021/05/30 07:29:33;;;;;;;3.43;3.13;;;16.10;52.90;;;;;;5083520;28;20686;-85
2021/05/30 07:32:01;;;;;;;3.67;3.27;;;16.20;52.90;;;;;;5073303;28;20622;-84
2021/05/30 07:34:32;;;;;;;3.00;2.70;;;16.10;52.30;;;;;;5088564;28;20751;-85
2021/05/30 07:37:03;;;;;;;3.33;3.03;;;16.20;53.00;;;;;;5088642;28;20625;-84
2021/05/30 07:39:35;;;;;;;3.97;3.10;;;16.30;52.80;;;;;;5080404;28;20659;-84
2021/05/30 07:42:02;;;;;;;3.27;2.97;;;16.50;52.50;;;;;;5087940;28;20617;-85
2021/05/30 07:44:31;;;;;;;4.00;3.07;;;16.60;53.20;;;;;;5077332;28;20778;-82
2021/05/30 07:46:58;;;;;;;3.07;2.87;;;16.70;51.50;;;;;;5075261;28;20749;-81
2021/05/30 07:49:25;;;;;;;2.50;2.30;;;16.70;51.10;;;;;;5090384;28;21057;-83
2021/05/30 07:51:52;;;;;;;4.57;3.03;;;16.80;51.00;;;;;;5070600;28;20610;-84
2021/05/30 07:54:22;;;;;;;3.07;2.87;;;16.80;51.00;;;;;;5076895;28;20618;-84
2021/05/30 07:56:51;;;;;;;3.23;2.53;;;16.80;50.60;;;;;;5071440;28;20625;-85
2021/05/30 07:59:20;;;;;;;3.50;3.20;;;17.00;50.80;;;;;;5087134;28;20759;-84
2021/05/30 08:01:48;;;;;;;3.97;3.30;;;17.10;51.00;;;;;;5090947;28;20646;-84
2021/05/30 08:04:15;;;;;;;3.17;2.97;;;17.10;50.30;;;;;;5074528;28;20617;-84
2021/05/30 08:06:41;;;;;;;3.23;2.97;;;17.20;50.10;;;;;;5070709;28;20617;-85
2021/05/30 08:09:10;;;;;;;3.80;3.50;;;17.20;50.60;;;;;;5082682;28;21185;-85
2021/05/30 08:11:37;;;;;;;4.40;2.67;;;17.30;49.80;;;;;;5078465;28;20951;-85
2021/05/30 08:14:05;;;;;;;3.80;2.70;;;17.40;50.20;;;;;;5078459;28;20991;-84
2021/05/30 08:16:34;;;;;;;3.37;3.03;;;17.60;50.40;;;;;;5084460;28;20686;-85
2021/05/30 08:19:05;;;;;;;3.27;2.97;;;17.70;51.70;;;;;;5077290;28;20738;-85
2021/05/30 08:21:34;;;;;;;3.60;3.30;;;17.90;51.50;;;;;;5072540;28;20675;-85
2021/05/30 08:24:00;;;;;;;3.67;3.30;;;17.50;51.60;;;;;;5080117;28;20630;-85
2021/05/30 08:26:27;;;;;;;3.53;2.90;;;17.60;50.80;;;;;;5077461;28;21303;-85
2021/05/30 08:28:54;;;;;;;3.50;3.20;;;17.70;50.80;;;;;;5077599;28;20620;-85
2021/05/30 08:31:21;;;;;;;2.70;2.50;;;17.90;52.00;;;;;;5077154;28;20667;-84
2021/05/30 08:33:47;;;;;;;3.00;2.80;;;17.90;47.70;;;;;;5080796;28;20640;-85
2021/05/30 08:36:14;;;;;;;3.03;2.67;;;18.10;48.20;;;;;;5089034;28;20681;-83
2021/05/30 08:38:40;;;;;;;3.57;3.27;;;18.10;47.30;;;;;;5088146;28;20968;-85
2021/05/30 08:41:07;;;;;;;5.53;2.30;;;18.10;47.60;;;;;;5088686;28;20609;-84
2021/05/30 08:43:33;;;;;;;2.60;2.40;;;18.20;46.40;;;;;;5087265;28;20633;-83
2021/05/30 08:46:00;;;;;;;3.00;2.80;;;18.20;45.70;;;;;;5071437;28;20950;-85
2021/05/30 08:48:27;;;;;;;2.90;2.67;;;18.20;45.00;;;;;;5079634;28;20640;-84
2021/05/30 08:51:04;;;;;;;3.37;3.13;;;18.10;46.30;;;;;;5088803;28;21029;-85
2021/05/30 08:53:32;;;;;;;2.83;2.63;;;18.20;47.40;;;;;;5085203;28;20820;-84
2021/05/30 08:56:04;;;;;;;2.77;2.57;;;18.30;47.70;;;;;;5080253;28;20724;-84
2021/05/30 08:58:34;;;;;;;3.40;2.80;;;18.60;46.90;;;;;;5085969;28;20621;-83
2021/05/30 09:01:09;;;;;;;2.50;2.00;;;18.60;46.20;;;;;;5082878;28;20663;-85
2021/05/30 09:03:58;;;;;;;2.93;2.30;;;18.50;44.50;;;;;;5083190;28;20621;-83
2021/05/30 09:06:26;;;;;;;3.13;2.93;;;18.60;44.20;;;;;;5077936;28;20616;-84
2021/05/30 09:08:54;;;;;;;2.70;2.50;;;18.60;44.80;;;;;;5075799;28;21182;-85
2021/05/30 09:11:44;;;;;;;3.17;2.90;;;18.60;45.30;;;;;;5075692;28;21252;-84
2021/05/30 09:14:15;;;;;;;2.50;2.40;;;18.60;45.80;;;;;;5082942;28;20679;-84
2021/05/30 09:16:58;;;;;;;3.27;2.83;;;18.60;45.70;;;;;;5077926;28;20641;-84
2021/05/30 09:20:04;;;;;;;3.90;2.80;;;18.70;45.70;;;;;;5084709;28;20652;-84
2021/05/30 09:22:39;;;;;;;7.10;2.70;;;18.80;44.40;;;;;;5081390;28;20630;-85
2021/05/30 09:25:14;;;;;;;2.90;2.70;;;18.70;44.50;;;;;;5089310;28;20632;-84
2021/05/30 09:27:50;;;;;;;3.03;2.73;;;18.80;44.90;;;;;;5093151;28;20685;-83
2021/05/30 09:30:19;;;;;;;3.27;2.97;;;19.00;44.00;;;;;;5090844;28;20628;-84
2021/05/30 09:32:53;;;;;;;3.33;3.03;;;19.10;43.40;;;;;;5091004;28;20616;-85
2021/05/30 09:35:21;;;;;;;9.37;3.10;;;19.10;43.20;;;;;;5072951;28;20621;-84
2021/05/30 09:38:00;;;;;;;3.03;2.50;;;19.00;44.50;;;;;;5079151;28;20621;-85
2021/05/30 09:40:37;;;;;;;3.53;3.10;;;19.10;44.30;;;;;;5079934;28;20650;-84
2021/05/30 09:43:06;;;;;;;3.13;2.83;;;19.10;43.80;;;;;;5074196;28;21721;-85
2021/05/30 09:45:33;;;;;;;3.10;2.83;;;19.20;44.10;;;;;;5093191;28;20617;-84
2021/05/30 09:48:02;;;;;;;2.90;2.57;;;19.10;43.60;;;;;;5084064;28;20613;-84
2021/05/30 09:50:37;;;;;;;3.40;3.10;;;18.90;44.40;;;;;;5085603;28;20617;-85
2021/05/30 09:53:08;;;;;;;3.27;2.97;;;18.90;45.80;;;;;;5073173;28;20621;-84
2021/05/30 09:55:34;;;;;;;5.37;3.20;;;19.10;44.60;;;;;;5092225;28;21047;-83
2021/05/30 09:58:11;;;;;;;2.77;2.57;;;19.30;44.70;;;;;;5091926;28;20641;-84
2021/05/30 10:00:38;;;;;;;2.90;2.70;;;19.50;43.20;;;;;;5073205;28;20711;-85
2021/05/30 10:03:05;;;;;;;3.03;2.77;;;19.50;43.10;;;;;;5080424;28;20644;-83
2021/05/30 10:05:37;;;;;;;3.90;3.33;;;19.50;43.80;;;;;;5072172;28;21025;-84
2021/05/30 10:08:06;;;;;;;8.10;2.80;;;19.50;45.10;;;;;;5089244;28;21190;-85
2021/05/30 10:10:33;;;;;;;3.33;2.97;;;19.40;42.90;;;;;;5084344;28;20618;-85
2021/05/30 10:13:01;;;;;;;3.47;3.20;;;19.40;43.70;;;;;;5082043;28;20628;-83
2021/05/30 10:15:28;;;;;;;4.17;3.77;;;19.60;44.10;;;;;;5092013;28;20658;-84
2021/05/30 10:17:56;;;;;;;3.30;3.10;;;19.80;44.90;;;;;;5086956;28;21023;-83
2021/05/30 10:20:24;;;;;;;3.07;2.80;;;20.10;45.50;;;;;;5090485;28;20631;-84
2021/05/30 10:22:54;;;;;;;3.10;2.90;;;20.40;45.40;;;;;;5089707;28;20651;-84
2021/05/30 10:25:32;;;;;;;3.00;2.70;;;20.70;44.80;;;;;;5095378;28;20616;-85
2021/05/30 10:28:10;;;;;;;3.00;2.80;;;20.60;41.80;;;;;;5093024;28;20624;-83
2021/05/30 10:30:36;;;;;;;3.33;2.90;;;20.70;42.30;;;;;;5092421;28;21226;-83
2021/05/30 10:33:12;;;;;;;3.33;2.53;;;20.80;42.50;;;;;;5092202;28;20655;-85
2021/05/30 10:35:39;;;;;;;3.40;3.20;;;20.70;43.40;;;;;;5072005;28;20665;-85
2021/05/30 10:38:07;;;;;;;4.00;3.63;;;20.80;43.90;;;;;;5084568;28;20907;-84
2021/05/30 10:40:36;;;;;;;3.20;2.93;;;20.90;43.10;;;;;;5078825;28;20662;-85
2021/05/30 10:43:32;;;;;;;3.30;3.00;;;21.10;43.20;;;;;;5087932;28;21262;-86
2021/05/30 10:46:08;;;;;;;3.80;2.97;;;21.20;43.40;;;;;;5037710;28;20989;-86
2021/05/30 10:48:37;;;;;;;2.97;2.77;;;21.00;43.20;;;;;;5070815;28;20655;-85
2021/05/30 10:51:24;;;;;;;3.70;3.40;;;21.30;43.80;;;;;;5071457;28;20634;-84
2021/05/30 10:53:53;;;;;;;3.73;2.80;;;21.10;43.40;;;;;;5083942;28;20617;-84
2021/05/30 10:56:30;;;;;;;2.70;2.50;;;21.40;43.90;;;;;;5071667;28;20775;-84
2021/05/30 10:59:27;;;;;;;3.80;3.20;;;21.50;42.80;;;;;;5067308;28;20771;-84
2021/05/30 11:01:56;;;;;;;3.20;2.90;;;21.60;41.80;;;;;;5068062;28;20639;-83
2021/05/30 11:04:35;;;;;;;2.83;2.63;;;21.50;43.10;;;;;;5072423;28;20629;-83
2021/05/30 11:07:19;;;;;;;3.10;2.90;;;21.80;43.90;;;;;;5078183;28;20870;-83
2021/05/30 11:10:19;;;;;;;3.20;3.00;;;21.80;41.70;;;;;;5076921;28;20640;-83
2021/05/30 11:12:53;;;;;;;2.90;2.70;;;22.10;39.80;;;;;;5085793;28;20631;-84
2021/05/30 11:15:23;;;;;;;2.60;2.40;;;22.30;40.40;;;;;;5088557;28;20659;-84
2021/05/30 11:17:50;;;;;;;2.77;2.57;;;22.50;40.00;;;;;;5087933;28;20658;-84
2021/05/30 11:20:19;;;;;;;3.33;3.03;;;22.50;40.00;;;;;;5071247;28;20656;-85
2021/05/30 11:22:48;;;;;;;3.40;3.03;;;22.80;40.70;;;;;;5083351;28;21496;-84
2021/05/30 11:25:16;;;;;;;2.97;2.67;;;23.00;41.20;;;;;;5072864;28;20695;-84
2021/05/30 11:27:56;;;;;;;3.70;3.40;;;23.00;40.10;;;;;;5072766;28;21184;-84
2021/05/30 11:30:42;;;;;;;3.20;2.93;;;23.40;40.00;;;;;;5071577;28;21027;-84
2021/05/30 11:33:14;;;;;;;3.50;2.80;;;23.50;39.00;;;;;;5070575;28;20671;-85
2021/05/30 11:35:43;;;;;;;2.90;2.70;;;23.70;39.70;;;;;;5070609;28;20706;-85
2021/05/30 11:38:11;;;;;;;3.00;2.80;;;23.40;38.90;;;;;;5070798;28;21066;-85
2021/05/30 11:40:39;;;;;;;3.10;2.90;;;22.30;38.00;;;;;;5070825;28;20673;-84
2021/05/30 11:43:18;;;;;;;3.00;2.80;;;21.30;39.50;;;;;;5071787;28;20657;-84
2021/05/30 11:45:47;;;;;;;3.10;2.90;;;21.80;40.40;;;;;;5071551;28;20625;-84
2021/05/30 11:48:15;;;;;;;3.00;2.80;;;22.10;39.70;;;;;;5071131;28;21072;-84
2021/05/30 11:50:50;;;;;;;3.30;3.00;;;22.30;38.90;;;;;;5070803;28;21005;-84
2021/05/30 11:53:28;;;;;;;3.47;3.27;;;22.70;39.60;;;;;;5069334;28;20687;-84
2021/05/30 11:55:55;;;;;;;2.70;2.50;;;22.00;38.10;;;;;;5070520;28;20665;-85
2021/05/30 11:58:23;;;;;;;2.83;2.63;;;21.80;39.10;;;;;;5070426;28;20632;-84
2021/05/30 12:00:54;;;;;;;2.70;2.47;;;21.60;39.40;;;;;;5070864;28;20664;-84
2021/05/30 12:03:22;;;;;;;2.93;2.73;;;22.50;38.50;;;;;;5070364;28;20637;-85
2021/05/30 12:05:55;;;;;;;2.80;2.60;;;24.00;38.00;;;;;;5070463;28;20690;-85
2021/05/30 12:08:21;;;;;;;2.77;2.43;;;24.60;38.10;;;;;;5074296;28;20618;-85
2021/05/30 12:10:49;;;;;;;3.27;3.07;;;26.80;34.80;;;;;;5089388;28;20609;-85
2021/05/30 12:13:40;;;;;;;6.00;2.70;;;26.10;34.50;;;;;;5072776;28;20637;-85
2021/05/30 12:16:17;;;;;;;4.37;3.23;;;27.10;34.30;;;;;;5069952;28;20634;-85
2021/05/30 12:18:54;;;;;;;2.60;2.50;;;28.20;32.00;;;;;;5081058;28;20624;-84
2021/05/30 12:21:22;;;;;;;3.40;3.20;;;27.70;32.40;;;;;;5073700;28;21228;-85
2021/05/30 12:23:49;;;;;;;3.10;2.90;;;28.20;34.40;;;;;;5089948;28;21424;-85
2021/05/30 12:26:16;;;;;;;2.60;2.40;;;30.20;32.50;;;;;;5090613;28;21312;-85
2021/05/30 12:28:44;;;;;;;2.67;2.47;;;30.40;30.40;;;;;;5077514;28;20613;-86
2021/05/30 12:31:12;;;;;;;4.20;2.47;;;32.00;28.80;;;;;;5074263;28;20691;-85
2021/05/30 12:33:53;;;;;;;3.90;2.67;;;33.00;27.90;;;;;;5079740;28;20659;-84
2021/05/30 12:36:34;;;;;;;2.80;2.60;;;32.00;27.10;;;;;;5089220;28;20652;-85
2021/05/30 12:39:05;;;;;;;2.60;2.40;;;31.60;27.60;;;;;;5080940;28;21302;-85
2021/05/30 12:41:34;;;;;;;2.50;2.30;;;30.60;29.30;;;;;;5089033;28;20634;-85
2021/05/30 12:44:08;;;;;;;2.30;2.10;;;31.10;28.90;;;;;;5088080;28;20620;-85
2021/05/30 12:46:35;;;;;;;2.47;2.37;;;29.10;28.80;;;;;;5071473;28;20631;-86
2021/05/30 12:49:13;;;;;;;2.80;2.70;;;28.70;29.80;;;;;;5082300;28;20715;-85
2021/05/30 12:51:56;;;;;;;2.57;2.37;;;28.30;29.60;;;;;;5088569;28;20616;-85
2021/05/30 12:54:23;;;;;;;3.67;2.50;;;29.30;29.50;;;;;;5076837;28;20637;-85
2021/05/30 12:56:50;;;;;;;2.87;2.70;;;29.60;29.20;;;;;;5071162;28;20662;-85
2021/05/30 12:59:20;;;;;;;3.47;2.30;;;28.30;28.60;;;;;;5075641;28;20739;-85
2021/05/30 13:01:49;;;;;;;2.23;2.10;;;29.20;29.40;;;;;;5073337;28;20634;-86
2021/05/30 13:04:28;;;;;;;2.53;2.30;;;29.80;29.40;;;;;;5088416;28;20625;-85